Time;durP1;ratioP1;P1;durP2;ratioP2;P2;SDS_P1;SDS_P2;PMS_P1;PMS_P2;Temp;Humidity;BMP_temperature;BMP_pressure;BME280_temperature;BME280_humidity;BME280_pressure;Samples;Min_cycle;Max_cycle;Signal;HPM_P1;HPM_P2
2023/03/04 00:01:45;;;;;;;4.30;1.30;;;;;;;;;;4971375;28;20035;-63
2023/03/04 00:04:12;;;;;;;3.28;1.63;;;;;;;;;;4967796;28;20485;-62
2023/03/04 00:06:39;;;;;;;5.38;1.50;;;;;;;;;;4967600;28;20026;-63
2023/03/04 00:09:05;;;;;;;27.60;1.55;;;;;;;;;;4967643;28;20030;-63
2023/03/04 00:11:32;;;;;;;3.83;1.60;;;;;;;;;;4967699;28;20026;-63
2023/03/04 00:13:59;;;;;;;2.33;1.20;;;;;;;;;;4973036;28;20023;-63
2023/03/04 00:16:26;;;;;;;18.05;1.58;;;;;;;;;;4972922;28;20355;-63
2023/03/04 00:18:58;;;;;;;1.52;0.82;;;;;;;;;;4973000;28;20469;-63
2023/03/04 00:21:25;;;;;;;11.45;1.10;;;;;;;;;;4972667;28;20022;-63
2023/03/04 00:23:51;;;;;;;4.60;1.90;;;;;;;;;;4972375;28;20054;-63
2023/03/04 00:26:18;;;;;;;2.67;1.50;;;;;;;;;;4967493;28;20027;-63
2023/03/04 00:28:44;;;;;;;20.63;1.63;;;;;;;;;;4967677;28;20094;-60
2023/03/04 00:31:12;;;;;;;2.15;1.38;;;;;;;;;;4967393;28;20027;-61
2023/03/04 00:33:39;;;;;;;4.45;1.52;;;;;;;;;;4967148;28;20084;-60
2023/03/04 00:36:06;;;;;;;2.08;1.23;;;;;;;;;;4972711;28;20023;-60
2023/03/04 00:38:33;;;;;;;1.58;1.00;;;;;;;;;;4972312;28;20497;-60
2023/03/04 00:40:59;;;;;;;2.10;1.38;;;;;;;;;;4972690;28;20022;-61
2023/03/04 00:43:26;;;;;;;8.07;1.58;;;;;;;;;;4973991;28;20494;-60
2023/03/04 00:45:52;;;;;;;3.88;1.63;;;;;;;;;;4976217;28;20023;-61
2023/03/04 00:48:19;;;;;;;2.78;1.33;;;;;;;;;;4970931;28;20038;-60
2023/03/04 00:50:46;;;;;;;1.40;1.10;;;;;;;;;;4970740;28;20023;-60
2023/03/04 00:53:12;;;;;;;1.67;0.90;;;;;;;;;;4970596;28;20038;-60
2023/03/04 00:55:39;;;;;;;3.65;1.50;;;;;;;;;;4970605;28;20031;-60
2023/03/04 00:58:06;;;;;;;2.58;1.45;;;;;;;;;;4974630;28;20031;-60
2023/03/04 01:00:32;;;;;;;4.37;1.43;;;;;;;;;;4975857;28;20097;-60
2023/03/04 01:02:59;;;;;;;1.83;1.37;;;;;;;;;;4975891;28;20034;-60
2023/03/04 01:05:26;;;;;;;2.97;1.33;;;;;;;;;;4975850;28;20110;-60
2023/03/04 01:07:52;;;;;;;5.17;1.60;;;;;;;;;;4975916;28;20034;-60
2023/03/04 01:10:19;;;;;;;6.63;1.77;;;;;;;;;;4971386;28;20023;-63
2023/03/04 01:12:46;;;;;;;4.67;1.50;;;;;;;;;;4970189;28;20431;-63
2023/03/04 01:15:13;;;;;;;2.77;1.30;;;;;;;;;;4969990;28;20465;-60
2023/03/04 01:17:40;;;;;;;3.23;1.47;;;;;;;;;;4970221;28;20123;-61
2023/03/04 01:20:07;;;;;;;2.40;0.97;;;;;;;;;;4973639;28;20460;-60
2023/03/04 01:22:34;;;;;;;3.47;0.90;;;;;;;;;;4975757;28;20044;-60
2023/03/04 01:25:01;;;;;;;7.33;1.60;;;;;;;;;;4975615;28;20027;-62
2023/03/04 01:27:27;;;;;;;2.00;1.23;;;;;;;;;;4975415;28;20078;-62
2023/03/04 01:29:54;;;;;;;2.77;1.27;;;;;;;;;;4975577;28;20025;-63
2023/03/04 01:32:20;;;;;;;6.60;1.50;;;;;;;;;;4972415;28;20031;-63
2023/03/04 01:34:47;;;;;;;1.80;1.20;;;;;;;;;;4969828;28;20050;-63
2023/03/04 01:37:14;;;;;;;2.73;1.20;;;;;;;;;;4969827;28;20045;-63
2023/03/04 01:39:40;;;;;;;4.73;1.70;;;;;;;;;;4969847;28;20037;-63
2023/03/04 01:42:14;;;;;;;1.73;1.10;;;;;;;;;;4972267;28;20027;-62
2023/03/04 01:44:40;;;;;;;2.63;1.70;;;;;;;;;;4975266;28;20466;-63
2023/03/04 01:47:09;;;;;;;4.43;1.80;;;;;;;;;;4975118;28;20490;-63
2023/03/04 01:49:35;;;;;;;4.57;1.37;;;;;;;;;;4975034;28;20149;-63
2023/03/04 01:52:02;;;;;;;2.53;0.93;;;;;;;;;;4975218;28;20035;-63
2023/03/04 01:54:29;;;;;;;17.00;1.87;;;;;;;;;;4972031;28;20030;-63
2023/03/04 01:56:57;;;;;;;1.20;0.93;;;;;;;;;;4969762;28;20038;-63
2023/03/04 01:59:25;;;;;;;5.90;1.40;;;;;;;;;;4969504;28;20035;-63
2023/03/04 02:01:56;;;;;;;2.70;1.23;;;;;;;;;;4969606;28;20029;-62
2023/03/04 02:04:24;;;;;;;2.50;1.20;;;;;;;;;;4971331;28;20101;-63
2023/03/04 02:06:51;;;;;;;3.67;1.43;;;;;;;;;;4974462;28;20019;-63
2023/03/04 02:09:19;;;;;;;2.40;1.50;;;;;;;;;;4974779;28;20026;-63
2023/03/04 02:11:47;;;;;;;36.37;1.90;;;;;;;;;;4974751;28;20118;-62
2023/03/04 02:14:15;;;;;;;5.67;1.67;;;;;;;;;;4974634;28;20031;-62
2023/03/04 02:16:41;;;;;;;3.67;2.10;;;;;;;;;;4972543;28;20031;-62
2023/03/04 02:19:28;;;;;;;1.33;1.10;;;;;;;;;;4969005;28;20054;-62
2023/03/04 02:21:55;;;;;;;2.60;1.60;;;;;;;;;;4969054;28;20106;-62
2023/03/04 02:24:39;;;;;;;4.13;1.97;;;;;;;;;;4969304;28;20035;-63
2023/03/04 02:27:05;;;;;;;9.30;2.47;;;;;;;;;;4971749;28;20050;-62
2023/03/04 02:29:32;;;;;;;2.57;1.80;;;;;;;;;;4974454;28;20019;-64
2023/03/04 02:31:59;;;;;;;5.40;2.07;;;;;;;;;;4974068;28;20486;-62
2023/03/04 02:34:29;;;;;;;10.67;2.00;;;;;;;;;;4974237;28;20035;-62
2023/03/04 02:36:56;;;;;;;2.70;1.77;;;;;;;;;;4974238;28;20038;-63
2023/03/04 02:39:42;;;;;;;4.43;2.20;;;;;;;;;;4971561;28;20045;-63
2023/03/04 02:42:09;;;;;;;5.53;2.07;;;;;;;;;;4968604;28;20441;-63
2023/03/04 02:44:37;;;;;;;2.67;1.50;;;;;;;;;;4968442;28;20025;-63
2023/03/04 02:47:05;;;;;;;5.93;2.43;;;;;;;;;;4968703;28;20537;-62
2023/03/04 02:49:32;;;;;;;3.53;1.97;;;;;;;;;;4971000;28;20031;-62
2023/03/04 02:52:04;;;;;;;23.90;2.10;;;;;;;;;;4973676;28;20039;-62
2023/03/04 02:54:30;;;;;;;7.33;1.97;;;;;;;;;;4974014;28;20493;-62
2023/03/04 02:56:59;;;;;;;6.00;2.87;;;;;;;;;;4974010;28;20031;-63
2023/03/04 02:59:26;;;;;;;3.07;1.90;;;;;;;;;;4974041;28;20033;-62
2023/03/04 03:01:53;;;;;;;3.93;2.13;;;;;;;;;;4970724;28;20101;-62
2023/03/04 03:04:20;;;;;;;1.73;1.37;;;;;;;;;;4968472;28;20501;-62
2023/03/04 03:06:46;;;;;;;2.60;1.80;;;;;;;;;;4967553;28;20031;-62
2023/03/04 03:09:13;;;;;;;3.63;1.97;;;;;;;;;;4968304;28;20027;-62
2023/03/04 03:11:40;;;;;;;1.60;1.23;;;;;;;;;;4969782;28;20074;-62
2023/03/04 03:14:07;;;;;;;2.13;1.70;;;;;;;;;;4973740;28;20027;-62
2023/03/04 03:16:33;;;;;;;2.57;1.73;;;;;;;;;;4973659;28;20485;-62
2023/03/04 03:19:00;;;;;;;1.70;1.40;;;;;;;;;;4973596;28;20474;-62
2023/03/04 03:21:27;;;;;;;3.47;1.83;;;;;;;;;;4973601;28;20490;-62
2023/03/04 03:23:53;;;;;;;5.47;1.87;;;;;;;;;;4971887;28;20117;-62
2023/03/04 03:26:20;;;;;;;3.27;1.97;;;;;;;;;;4967952;28;20030;-62
2023/03/04 03:28:47;;;;;;;8.10;2.30;;;;;;;;;;4968130;28;20551;-62
2023/03/04 03:31:14;;;;;;;8.37;2.17;;;;;;;;;;4968285;28;20026;-62
2023/03/04 03:33:41;;;;;;;2.77;1.93;;;;;;;;;;4968661;28;20034;-62
2023/03/04 03:36:08;;;;;;;5.03;2.33;;;;;;;;;;4973707;28;20031;-62
2023/03/04 03:38:34;;;;;;;3.53;2.10;;;;;;;;;;4972896;28;20031;-61
2023/03/04 03:41:01;;;;;;;3.07;1.67;;;;;;;;;;4973410;28;20023;-62
2023/03/04 03:43:28;;;;;;;5.63;2.27;;;;;;;;;;4973311;28;20023;-62
2023/03/04 03:45:54;;;;;;;3.73;2.03;;;;;;;;;;4972526;28;20419;-62
2023/03/04 03:48:21;;;;;;;2.87;2.00;;;;;;;;;;4967897;28;20561;-62
2023/03/04 03:50:48;;;;;;;7.97;3.13;;;;;;;;;;4968029;28;20027;-62
2023/03/04 03:53:14;;;;;;;3.40;2.10;;;;;;;;;;4967908;28;20118;-63
2023/03/04 03:55:41;;;;;;;3.93;2.20;;;;;;;;;;4967792;28;20082;-62
2023/03/04 03:58:08;;;;;;;3.13;1.80;;;;;;;;;;4973013;28;20027;-62
2023/03/04 04:00:34;;;;;;;4.03;2.13;;;;;;;;;;4973224;28;20548;-62
2023/03/04 04:03:01;;;;;;;3.60;2.20;;;;;;;;;;4973310;28;20030;-62
2023/03/04 04:05:28;;;;;;;6.90;2.97;;;;;;;;;;4973252;28;20098;-63
2023/03/04 04:07:55;;;;;;;9.73;3.13;;;;;;;;;;4973120;28;20086;-62
2023/03/04 04:10:21;;;;;;;6.53;2.60;;;;;;;;;;4967782;28;20034;-62
2023/03/04 04:12:48;;;;;;;3.63;2.43;;;;;;;;;;4967729;28;20039;-62
2023/03/04 04:15:14;;;;;;;3.80;2.27;;;;;;;;;;4967544;28;20539;-63
2023/03/04 04:17:41;;;;;;;6.23;2.53;;;;;;;;;;4969114;28;20030;-62
2023/03/04 04:20:08;;;;;;;5.73;2.77;;;;;;;;;;4975854;28;20030;-62
2023/03/04 04:22:35;;;;;;;3.97;2.83;;;;;;;;;;4976913;28;20045;-62
2023/03/04 04:25:02;;;;;;;3.80;2.20;;;;;;;;;;4976807;28;20062;-63
2023/03/04 04:27:28;;;;;;;7.77;2.73;;;;;;;;;;4976733;28;20027;-62
2023/03/04 04:29:55;;;;;;;3.40;2.33;;;;;;;;;;4976578;28;20486;-62
2023/03/04 04:32:22;;;;;;;4.33;2.10;;;;;;;;;;4972103;28;20046;-62
2023/03/04 04:34:48;;;;;;;3.90;2.07;;;;;;;;;;4970575;28;20031;-63
2023/03/04 04:37:15;;;;;;;4.63;2.13;;;;;;;;;;4971042;28;20754;-62
2023/03/04 04:39:41;;;;;;;8.27;2.70;;;;;;;;;;4970997;28;20145;-62
2023/03/04 04:42:09;;;;;;;9.83;1.67;;;;;;;;;;4974599;28;20059;-62
2023/03/04 04:44:37;;;;;;;3.27;1.50;;;;;;;;;;4976357;28;20166;-62
2023/03/04 04:47:05;;;;;;;5.87;2.47;;;;;;;;;;4976331;28;20556;-62
2023/03/04 04:49:32;;;;;;;5.13;2.10;;;;;;;;;;4976464;28;20343;-62
2023/03/04 04:51:59;;;;;;;2.83;1.80;;;;;;;;;;4975500;28;20060;-62
2023/03/04 04:54:26;;;;;;;3.53;2.23;;;;;;;;;;4972684;28;20484;-62
2023/03/04 04:56:52;;;;;;;5.17;2.30;;;;;;;;;;4970839;28;20035;-62
2023/03/04 04:59:19;;;;;;;8.50;1.97;;;;;;;;;;4970705;28;20054;-62
2023/03/04 05:01:46;;;;;;;2.33;1.33;;;;;;;;;;4970651;28;20034;-62
2023/03/04 05:04:12;;;;;;;8.60;2.40;;;;;;;;;;4973306;28;20027;-62
2023/03/04 05:06:39;;;;;;;3.73;2.07;;;;;;;;;;4976158;28;20078;-62
2023/03/04 05:09:06;;;;;;;3.90;2.03;;;;;;;;;;4975859;28;20034;-62
2023/03/04 05:11:32;;;;;;;19.10;2.17;;;;;;;;;;4975770;28;20035;-62
2023/03/04 05:13:59;;;;;;;2.13;1.63;;;;;;;;;;4975815;28;20457;-62
2023/03/04 05:16:26;;;;;;;3.10;1.80;;;;;;;;;;4973283;28;20027;-62
2023/03/04 05:18:52;;;;;;;3.03;1.90;;;;;;;;;;4970549;28;20035;-62
2023/03/04 05:21:19;;;;;;;6.80;1.87;;;;;;;;;;4970523;28;20061;-62
2023/03/04 05:23:46;;;;;;;2.77;1.47;;;;;;;;;;4970458;28;20027;-61
2023/03/04 05:26:14;;;;;;;4.37;2.13;;;;;;;;;;4972217;28;20086;-63
2023/03/04 05:28:41;;;;;;;2.63;1.77;;;;;;;;;;4974472;28;20031;-61
2023/03/04 05:31:08;;;;;;;2.87;1.97;;;;;;;;;;4975531;28;20410;-62
2023/03/04 05:33:38;;;;;;;3.00;1.93;;;;;;;;;;4975690;28;20031;-62
2023/03/04 05:36:05;;;;;;;4.30;1.87;;;;;;;;;;4975524;28;20074;-62
2023/03/04 05:38:32;;;;;;;3.17;1.70;;;;;;;;;;4973386;28;20174;-62
2023/03/04 05:41:00;;;;;;;2.90;1.87;;;;;;;;;;4970246;28;20037;-62
2023/03/04 05:43:27;;;;;;;5.77;2.13;;;;;;;;;;4969928;28;20105;-62
2023/03/04 05:45:56;;;;;;;3.73;2.23;;;;;;;;;;4969759;28;20038;-62
2023/03/04 05:48:23;;;;;;;2.73;2.07;;;;;;;;;;4971099;28;20027;-62
2023/03/04 05:50:54;;;;;;;2.77;1.77;;;;;;;;;;4975458;28;20114;-62
2023/03/04 05:53:21;;;;;;;2.57;1.87;;;;;;;;;;4975077;28;20047;-62
2023/03/04 05:55:48;;;;;;;27.87;2.60;;;;;;;;;;4975048;28;20386;-62
2023/03/04 05:58:15;;;;;;;3.13;2.00;;;;;;;;;;4975106;28;20481;-62
2023/03/04 06:00:42;;;;;;;3.30;1.70;;;;;;;;;;4973039;28;20383;-62
2023/03/04 06:03:14;;;;;;;2.40;1.90;;;;;;;;;;4969581;28;20027;-61
2023/03/04 06:05:41;;;;;;;2.47;1.90;;;;;;;;;;4969791;28;20162;-62
2023/03/04 06:08:07;;;;;;;2.60;1.80;;;;;;;;;;4969786;28;20027;-62
2023/03/04 06:10:34;;;;;;;7.63;2.30;;;;;;;;;;4970261;28;20054;-61
2023/03/04 06:13:01;;;;;;;3.07;1.70;;;;;;;;;;4974618;28;20046;-62
2023/03/04 06:15:27;;;;;;;5.37;2.23;;;;;;;;;;4974842;28;20027;-61
2023/03/04 06:17:54;;;;;;;9.17;2.53;;;;;;;;;;4974347;28;20019;-61
2023/03/04 06:20:21;;;;;;;3.67;2.53;;;;;;;;;;4974755;28;20026;-61
2023/03/04 06:22:47;;;;;;;3.80;2.17;;;;;;;;;;4973829;28;20027;-62
2023/03/04 06:25:14;;;;;;;2.63;1.93;;;;;;;;;;4969257;28;20023;-62
2023/03/04 06:27:41;;;;;;;1.97;1.67;;;;;;;;;;4969294;28;20509;-62
2023/03/04 06:30:08;;;;;;;7.33;2.77;;;;;;;;;;4969258;28;20033;-62
2023/03/04 06:32:35;;;;;;;4.27;2.00;;;;;;;;;;4969248;28;20038;-61
2023/03/04 06:35:01;;;;;;;3.33;1.77;;;;;;;;;;4974048;28;20038;-63
2023/03/04 06:37:28;;;;;;;4.10;2.53;;;;;;;;;;4974221;28;20039;-62
2023/03/04 06:39:55;;;;;;;3.47;1.87;;;;;;;;;;4974020;28;20030;-61
2023/03/04 06:42:21;;;;;;;8.23;2.23;;;;;;;;;;4973628;28;20068;-62
2023/03/04 06:44:49;;;;;;;4.63;2.10;;;;;;;;;;4974176;28;20387;-62
2023/03/04 06:47:17;;;;;;;4.87;1.80;;;;;;;;;;4968798;28;20046;-62
2023/03/04 06:49:44;;;;;;;3.70;2.23;;;;;;;;;;4968821;28;20121;-62
2023/03/04 06:52:11;;;;;;;3.77;2.37;;;;;;;;;;4968203;28;20449;-62
2023/03/04 06:54:38;;;;;;;6.97;2.43;;;;;;;;;;4968710;28;20089;-61
2023/03/04 06:57:05;;;;;;;3.13;2.20;;;;;;;;;;4973426;28;20494;-61
2023/03/04 06:59:32;;;;;;;5.57;2.97;;;;;;;;;;4974014;28;20026;-61
2023/03/04 07:01:59;;;;;;;6.13;3.47;;;;;;;;;;4974012;28;20022;-61
2023/03/04 07:04:26;;;;;;;3.73;2.33;;;;;;;;;;4973924;28;20534;-62
2023/03/04 07:06:52;;;;;;;5.10;2.93;;;;;;;;;;4974084;28;20031;-61
2023/03/04 07:09:19;;;;;;;4.40;2.67;;;;;;;;;;4968699;28;20023;-61
2023/03/04 07:11:46;;;;;;;7.00;3.00;;;;;;;;;;4968329;28;20050;-61
2023/03/04 07:14:12;;;;;;;7.43;3.37;;;;;;;;;;4968384;28;20107;-61
2023/03/04 07:16:39;;;;;;;3.70;2.37;;;;;;;;;;4968511;28;20031;-61
2023/03/04 07:19:06;;;;;;;9.90;3.43;;;;;;;;;;4972260;28;20038;-61
2023/03/04 07:21:33;;;;;;;3.37;2.50;;;;;;;;;;4973700;28;20030;-61
2023/03/04 07:24:00;;;;;;;3.60;2.50;;;;;;;;;;4973689;28;20042;-61
2023/03/04 07:26:29;;;;;;;6.90;2.77;;;;;;;;;;4973586;28;20481;-61
2023/03/04 07:28:58;;;;;;;6.97;3.80;;;;;;;;;;4973275;28;20034;-61
2023/03/04 07:31:28;;;;;;;3.00;2.43;;;;;;;;;;4969164;28;20089;-62
2023/03/04 07:33:59;;;;;;;8.17;3.23;;;;;;;;;;4968279;28;20557;-62
2023/03/04 07:36:26;;;;;;;4.27;2.23;;;;;;;;;;4968200;28;20386;-61
2023/03/04 07:38:55;;;;;;;5.63;3.70;;;;;;;;;;4967942;28;20041;-61
2023/03/04 07:41:23;;;;;;;3.77;2.53;;;;;;;;;;4971593;28;20378;-61
2023/03/04 07:43:50;;;;;;;13.83;3.27;;;;;;;;;;4973387;28;20027;-61
2023/03/04 07:46:17;;;;;;;3.20;2.00;;;;;;;;;;4973441;28;20045;-61
2023/03/04 07:48:44;;;;;;;17.20;3.27;;;;;;;;;;4973451;28;20046;-61
2023/03/04 07:51:12;;;;;;;8.83;2.20;;;;;;;;;;4973392;28;20030;-61
2023/03/04 07:53:40;;;;;;;7.10;1.97;;;;;;;;;;4972741;28;20027;-61
2023/03/04 07:56:07;;;;;;;4.87;2.60;;;;;;;;;;4972019;28;20030;-63
2023/03/04 07:58:34;;;;;;;7.50;2.30;;;;;;;;;;4971532;28;20031;-62
2023/03/04 08:01:01;;;;;;;2.33;1.80;;;;;;;;;;4971775;28;20520;-61
2023/03/04 08:03:28;;;;;;;7.83;3.40;;;;;;;;;;4974861;28;20030;-61
2023/03/04 08:05:55;;;;;;;3.90;2.77;;;;;;;;;;4977250;28;20043;-61
2023/03/04 08:08:21;;;;;;;2.70;1.50;;;;;;;;;;4977183;28;20022;-61
2023/03/04 08:10:48;;;;;;;3.67;2.10;;;;;;;;;;4977044;28;20019;-61
2023/03/04 08:13:15;;;;;;;6.90;3.43;;;;;;;;;;4976940;28;20031;-61
2023/03/04 08:15:42;;;;;;;4.93;2.00;;;;;;;;;;4973354;28;20034;-62
2023/03/04 08:18:09;;;;;;;2.20;1.67;;;;;;;;;;4971425;28;20030;-62
2023/03/04 08:20:36;;;;;;;3.37;1.60;;;;;;;;;;4971436;28;20103;-62
2023/03/04 08:23:02;;;;;;;3.90;1.90;;;;;;;;;;4971700;28;20035;-61
2023/03/04 08:25:29;;;;;;;2.43;2.00;;;;;;;;;;4973949;28;20034;-62
2023/03/04 08:27:56;;;;;;;6.93;2.20;;;;;;;;;;4976714;28;20171;-62
2023/03/04 08:30:23;;;;;;;2.77;2.00;;;;;;;;;;4976745;28;20033;-62
2023/03/04 08:32:49;;;;;;;4.70;2.10;;;;;;;;;;4976447;28;20039;-62
2023/03/04 08:35:16;;;;;;;4.63;2.60;;;;;;;;;;4976408;28;20591;-61
2023/03/04 08:37:43;;;;;;;4.33;2.60;;;;;;;;;;4973990;28;20026;-61
2023/03/04 08:40:11;;;;;;;3.67;2.13;;;;;;;;;;4971362;28;20497;-61
2023/03/04 08:42:37;;;;;;;3.57;2.07;;;;;;;;;;4970988;28;20033;-62
2023/03/04 08:45:04;;;;;;;4.27;1.93;;;;;;;;;;4971175;28;20040;-61
2023/03/04 08:47:31;;;;;;;4.63;2.13;;;;;;;;;;4972690;28;20034;-61
2023/03/04 08:49:58;;;;;;;2.57;2.07;;;;;;;;;;4976383;28;20034;-61
2023/03/04 08:52:25;;;;;;;3.47;2.10;;;;;;;;;;4976137;28;20386;-62
2023/03/04 08:54:52;;;;;;;3.93;2.03;;;;;;;;;;4976282;28;20099;-62
2023/03/04 08:57:19;;;;;;;4.40;2.63;;;;;;;;;;4976235;28;20382;-61
2023/03/04 08:59:45;;;;;;;12.10;2.83;;;;;;;;;;4974434;28;20085;-61
2023/03/04 09:02:12;;;;;;;4.13;2.50;;;;;;;;;;4971032;28;20035;-61
2023/03/04 09:04:39;;;;;;;3.33;2.13;;;;;;;;;;4969711;28;20545;-61
2023/03/04 09:07:06;;;;;;;3.63;2.50;;;;;;;;;;4970747;28;20395;-62
2023/03/04 09:09:33;;;;;;;3.33;1.97;;;;;;;;;;4971557;28;20377;-61
2023/03/04 09:11:59;;;;;;;2.43;1.63;;;;;;;;;;4975909;28;20041;-62
2023/03/04 09:14:26;;;;;;;3.27;2.17;;;;;;;;;;4976174;28;20023;-61
2023/03/04 09:16:53;;;;;;;3.70;2.07;;;;;;;;;;4975903;28;20433;-61
2023/03/04 09:19:19;;;;;;;4.43;2.43;;;;;;;;;;4975898;28;20053;-61
2023/03/04 09:21:46;;;;;;;6.97;2.50;;;;;;;;;;4974684;28;20019;-62
2023/03/04 09:24:13;;;;;;;6.00;3.00;;;;;;;;;;4970518;28;20030;-61
2023/03/04 09:26:39;;;;;;;6.47;2.03;;;;;;;;;;4969879;28;20089;-62
2023/03/04 09:29:06;;;;;;;4.17;2.43;;;;;;;;;;4970269;28;20081;-62
2023/03/04 09:31:33;;;;;;;2.53;2.17;;;;;;;;;;4970447;28;20509;-61
2023/03/04 09:33:59;;;;;;;4.30;3.23;;;;;;;;;;4975508;28;20031;-62
2023/03/04 09:36:29;;;;;;;2.83;1.70;;;;;;;;;;4975604;28;20011;-62
2023/03/04 09:38:59;;;;;;;1.97;1.60;;;;;;;;;;4975462;28;20075;-61
2023/03/04 09:41:29;;;;;;;1.67;1.47;;;;;;;;;;4975137;28;20023;-62
2023/03/04 09:43:56;;;;;;;3.47;2.23;;;;;;;;;;4974699;28;20490;-61
2023/03/04 09:46:28;;;;;;;2.60;1.97;;;;;;;;;;4969980;28;20247;-61
2023/03/04 09:48:55;;;;;;;1.73;1.47;;;;;;;;;;4969990;28;20034;-62
2023/03/04 09:51:22;;;;;;;3.20;1.97;;;;;;;;;;4970066;28;20053;-61
2023/03/04 09:53:52;;;;;;;3.70;2.70;;;;;;;;;;4969912;28;20041;-61
2023/03/04 09:56:18;;;;;;;3.37;1.90;;;;;;;;;;4974884;28;20411;-61
2023/03/04 09:58:45;;;;;;;4.17;2.13;;;;;;;;;;4974964;28;20035;-62
2023/03/04 10:01:47;;;;;;;4.40;3.27;;;;;;;;;;4975063;28;20377;-62
2023/03/04 10:04:17;;;;;;;9.97;4.83;;;;;;;;;;4934421;29;20102;-61
2023/03/04 10:06:50;;;;;;;9.37;5.50;;;;;;;;;;4966058;28;20406;-61
2023/03/04 10:09:20;;;;;;;15.70;6.50;;;;;;;;;;4969582;28;20455;-61
2023/03/04 10:11:50;;;;;;;8.50;6.33;;;;;;;;;;4969444;28;20489;-61
2023/03/04 10:14:17;;;;;;;10.17;5.67;;;;;;;;;;4969645;28;20027;-62
2023/03/04 10:16:53;;;;;;;10.37;5.80;;;;;;;;;;4970467;28;20030;-62
2023/03/04 10:19:24;;;;;;;16.20;6.17;;;;;;;;;;4974559;28;20027;-61
2023/03/04 10:21:51;;;;;;;8.63;5.37;;;;;;;;;;4974741;28;20391;-61
2023/03/04 10:24:21;;;;;;;5.73;3.97;;;;;;;;;;4974657;28;20027;-62
2023/03/04 10:27:10;;;;;;;7.20;5.03;;;;;;;;;;4974657;28;20101;-61
2023/03/04 10:29:37;;;;;;;6.03;4.60;;;;;;;;;;4971466;28;20105;-61
2023/03/04 10:32:03;;;;;;;8.67;5.07;;;;;;;;;;4969146;28;20038;-61
2023/03/04 10:34:30;;;;;;;6.33;3.53;;;;;;;;;;4969112;28;20043;-61
2023/03/04 10:37:01;;;;;;;6.57;3.97;;;;;;;;;;4968738;28;20516;-61
2023/03/04 10:39:32;;;;;;;3.50;2.57;;;;;;;;;;4971430;28;20034;-61
2023/03/04 10:42:01;;;;;;;5.40;3.23;;;;;;;;;;4974139;28;20497;-61
2023/03/04 10:44:28;;;;;;;6.80;3.40;;;;;;;;;;4974542;28;20370;-61
2023/03/04 10:46:56;;;;;;;3.50;2.67;;;;;;;;;;4974117;28;20469;-62
2023/03/04 10:49:26;;;;;;;3.97;3.00;;;;;;;;;;4974195;28;20077;-62
2023/03/04 10:52:04;;;;;;;3.97;2.37;;;;;;;;;;4971305;28;20030;-61
2023/03/04 10:54:56;;;;;;;2.40;1.83;;;;;;;;;;4968665;28;20027;-62
2023/03/04 10:57:40;;;;;;;4.23;2.20;;;;;;;;;;4953201;28;20126;-62
2023/03/04 11:00:18;;;;;;;1.70;1.50;;;;;;;;;;4968774;28;20121;-62
2023/03/04 11:02:46;;;;;;;5.67;3.77;;;;;;;;;;4973228;28;20032;-62
2023/03/04 11:05:17;;;;;;;5.50;3.20;;;;;;;;;;4974020;28;20111;-61
2023/03/04 11:07:52;;;;;;;5.20;2.30;;;;;;;;;;4973936;28;20023;-61
2023/03/04 11:10:28;;;;;;;3.70;2.47;;;;;;;;;;4973789;28;20038;-62
2023/03/04 11:13:02;;;;;;;2.87;1.90;;;;;;;;;;4973458;28;20117;-61
2023/03/04 11:15:49;;;;;;;4.15;2.97;;;;;;;;;;4968626;28;20447;-62
2023/03/04 11:18:17;;;;;;;2.30;1.83;;;;;;;;;;4968430;28;20034;-62
2023/03/04 11:20:48;;;;;;;1.60;1.20;;;;;;;;;;4968560;28;20058;-61
2023/03/04 11:23:38;;;;;;;3.87;2.17;;;;;;;;;;4968712;28;20446;-61
2023/03/04 11:26:16;;;;;;;3.17;1.33;;;;;;;;;;4967911;28;20042;-62
2023/03/04 11:28:42;;;;;;;1.40;1.20;;;;;;;;;;4973094;28;20033;-62
2023/03/04 11:31:14;;;;;;;1.40;1.27;;;;;;;;;;4973253;28;20026;-62
2023/03/04 11:33:41;;;;;;;2.13;1.47;;;;;;;;;;4973486;28;20112;-61
2023/03/04 11:36:08;;;;;;;3.00;1.73;;;;;;;;;;4971431;28;20092;-62
2023/03/04 11:38:40;;;;;;;6.23;1.93;;;;;;;;;;4968013;28;20042;-61
2023/03/04 11:41:13;;;;;;;2.23;1.47;;;;;;;;;;4968273;28;20019;-61
2023/03/04 11:43:42;;;;;;;4.63;1.60;;;;;;;;;;4967578;28;20037;-61
2023/03/04 11:46:12;;;;;;;3.30;1.40;;;;;;;;;;4969847;28;20034;-62
2023/03/04 11:48:54;;;;;;;3.20;1.60;;;;;;;;;;4973553;28;20027;-61
2023/03/04 11:51:34;;;;;;;1.27;1.13;;;;;;;;;;4973435;28;20355;-61
2023/03/04 11:54:08;;;;;;;1.93;1.40;;;;;;;;;;4973608;28;20034;-61
2023/03/04 11:56:37;;;;;;;3.60;2.47;;;;;;;;;;4973436;28;20023;-61
2023/03/04 11:59:22;;;;;;;2.13;1.77;;;;;;;;;;4970155;28;20370;-62
2023/03/04 12:02:01;;;;;;;1.55;1.38;;;;;;;;;;4967883;28;20129;-62
2023/03/04 12:04:43;;;;;;;2.23;1.73;;;;;;;;;;4968018;28;20101;-61
2023/03/04 12:07:10;;;;;;;5.93;2.13;;;;;;;;;;4967863;28;20057;-61
2023/03/04 12:10:00;;;;;;;1.63;1.20;;;;;;;;;;4972050;28;20018;-62
2023/03/04 12:12:29;;;;;;;2.73;2.10;;;;;;;;;;4973156;28;20353;-61
2023/03/04 12:14:56;;;;;;;4.40;2.57;;;;;;;;;;4973153;28;20023;-62
2023/03/04 12:17:41;;;;;;;2.37;1.80;;;;;;;;;;4973116;28;20031;-62
2023/03/04 12:20:23;;;;;;;2.33;1.48;;;;;;;;;;4972084;28;20051;-61
2023/03/04 12:22:52;;;;;;;2.47;1.80;;;;;;;;;;4968103;28;20446;-61
2023/03/04 12:25:28;;;;;;;3.63;2.17;;;;;;;;;;4967763;28;20031;-61
2023/03/04 12:27:58;;;;;;;2.00;1.57;;;;;;;;;;4967775;28;20089;-61
2023/03/04 12:30:24;;;;;;;1.93;1.33;;;;;;;;;;4968470;28;20078;-61
2023/03/04 12:32:51;;;;;;;3.20;1.80;;;;;;;;;;4972934;28;20035;-61
2023/03/04 12:35:33;;;;;;;2.23;1.70;;;;;;;;;;4972915;28;20460;-61
2023/03/04 12:38:18;;;;;;;4.47;2.43;;;;;;;;;;4973473;28;20389;-61
2023/03/04 12:40:45;;;;;;;2.28;1.60;;;;;;;;;;4975972;28;20023;-61
2023/03/04 12:43:31;;;;;;;2.97;1.87;;;;;;;;;;4973986;28;20374;-61
2023/03/04 12:46:05;;;;;;;2.80;1.83;;;;;;;;;;4970836;28;20167;-61
2023/03/04 12:48:37;;;;;;;1.47;1.20;;;;;;;;;;4970992;28;20529;-61
2023/03/04 12:51:22;;;;;;;1.87;1.33;;;;;;;;;;4970757;28;20038;-61
2023/03/04 12:53:49;;;;;;;2.10;1.67;;;;;;;;;;4973990;28;20078;-61
2023/03/04 12:56:23;;;;;;;8.33;2.50;;;;;;;;;;4976206;28;20045;-61
2023/03/04 12:58:50;;;;;;;2.80;1.75;;;;;;;;;;4976162;28;20386;-61
2023/03/04 13:01:36;;;;;;;11.80;2.23;;;;;;;;;;4975578;28;20512;-61
2023/03/04 13:04:08;;;;;;;2.00;1.50;;;;;;;;;;4976218;28;20098;-61
2023/03/04 13:06:39;;;;;;;1.07;0.87;;;;;;;;;;4971312;28;20093;-61
2023/03/04 13:09:38;;;;;;;2.63;1.60;;;;;;;;;;4970709;28;20023;-61
2023/03/04 13:12:34;;;;;;;6.57;2.30;;;;;;;;;;4948157;28;20045;-61
2023/03/04 13:15:06;;;;;;;2.72;1.90;;;;;;;;;;4962379;28;20118;-61
2023/03/04 13:17:36;;;;;;;4.43;2.70;;;;;;;;;;4975847;28;20029;-61
2023/03/04 13:20:12;;;;;;;3.67;1.97;;;;;;;;;;4975927;28;20039;-61
2023/03/04 13:22:39;;;;;;;4.47;2.43;;;;;;;;;;4975883;28;20031;-61
2023/03/04 13:25:24;;;;;;;3.20;2.03;;;;;;;;;;4975762;28;20066;-61
2023/03/04 13:27:51;;;;;;;4.03;1.33;;;;;;;;;;4973180;28;20062;-61
2023/03/04 13:30:47;;;;;;;4.33;2.20;;;;;;;;;;4970502;28;20026;-61
2023/03/04 13:33:14;;;;;;;5.35;2.25;;;;;;;;;;4960944;28;20055;-61
2023/03/04 13:35:47;;;;;;;4.27;2.40;;;;;;;;;;4970190;28;20023;-61
2023/03/04 13:38:25;;;;;;;4.40;2.93;;;;;;;;;;4972885;28;20023;-61
2023/03/04 13:41:15;;;;;;;3.53;2.33;;;;;;;;;;4975415;28;20549;-61
2023/03/04 13:43:46;;;;;;;3.33;2.23;;;;;;;;;;4968977;28;20102;-61
2023/03/04 13:46:18;;;;;;;13.93;1.87;;;;;;;;;;4975360;28;20505;-61
2023/03/04 13:48:59;;;;;;;2.60;1.90;;;;;;;;;;4975296;28;20114;-61
2023/03/04 13:51:40;;;;;;;10.53;2.67;;;;;;;;;;4969169;28;20027;-61
2023/03/04 13:54:12;;;;;;;4.10;2.60;;;;;;;;;;4969688;28;20047;-61
2023/03/04 13:56:40;;;;;;;8.67;3.53;;;;;;;;;;4969825;28;20050;-62
2023/03/04 13:59:42;;;;;;;4.63;2.67;;;;;;;;;;4969611;28;20041;-62
2023/03/04 14:02:08;;;;;;;5.17;3.07;;;;;;;;;;4934213;29;20038;-62
2023/03/04 14:04:36;;;;;;;9.20;3.33;;;;;;;;;;4966928;28;20034;-62
2023/03/04 14:07:18;;;;;;;6.07;3.07;;;;;;;;;;4974936;28;20539;-62
2023/03/04 14:09:53;;;;;;;5.23;2.73;;;;;;;;;;4974554;28;20121;-62
2023/03/04 14:12:20;;;;;;;5.50;3.33;;;;;;;;;;4972845;28;20034;-62
2023/03/04 14:14:52;;;;;;;5.33;2.93;;;;;;;;;;4969278;28;20027;-62
2023/03/04 14:17:24;;;;;;;11.10;2.63;;;;;;;;;;4969225;28;20048;-62
2023/03/04 14:19:51;;;;;;;5.47;3.53;;;;;;;;;;4969315;28;20023;-62
2023/03/04 14:22:23;;;;;;;5.43;3.00;;;;;;;;;;4970467;28;20125;-62
2023/03/04 14:25:16;;;;;;;5.10;3.27;;;;;;;;;;4974577;28;20031;-62
2023/03/04 14:27:43;;;;;;;5.20;3.23;;;;;;;;;;4972616;28;20069;-62
2023/03/04 14:30:20;;;;;;;3.20;2.27;;;;;;;;;;4974162;28;20023;-63
2023/03/04 14:32:47;;;;;;;7.23;3.13;;;;;;;;;;4974406;28;20045;-62
2023/03/04 14:35:22;;;;;;;8.83;2.50;;;;;;;;;;4970957;28;20110;-62
2023/03/04 14:37:48;;;;;;;;;;;;;;;;;;4969372;28;20067;-63
2023/03/04 14:40:26;;;;;;;5.90;3.97;;;;;;;;;;4968882;28;19906;-62
2023/03/04 14:43:04;;;;;;;3.37;2.23;;;;;;;;;;4968887;28;20590;-62
2023/03/04 14:45:31;;;;;;;6.50;3.30;;;;;;;;;;4972515;28;20027;-62
2023/03/04 14:48:00;;;;;;;3.83;2.23;;;;;;;;;;4974234;28;20089;-62
2023/03/04 14:50:26;;;;;;;4.23;2.80;;;;;;;;;;4974091;28;20026;-62
2023/03/04 14:53:08;;;;;;;9.27;3.67;;;;;;;;;;4973902;28;20045;-62
2023/03/04 14:55:35;;;;;;;3.70;2.73;;;;;;;;;;4974208;28;20106;-62
2023/03/04 14:58:09;;;;;;;6.77;2.83;;;;;;;;;;4969435;28;20604;-62